sensor_id;sensor_type;location;lat;lon;timestamp;pressure;altitude;pressure_sealevel;temperature;humidity
16355;BME280;8287;51.644;8.494;2023-04-16T00:00:24;100576.91;;;11.39;99.60
16355;BME280;8287;51.644;8.494;2023-04-16T00:02:50;100575.34;;;11.38;99.28
16355;BME280;8287;51.644;8.494;2023-04-16T00:05:17;100576.78;;;11.36;100.00
16355;BME280;8287;51.644;8.494;2023-04-16T00:07:47;100567.72;;;11.37;99.35
16355;BME280;8287;51.644;8.494;2023-04-16T00:10:16;100565.66;;;11.34;99.40
16355;BME280;8287;51.644;8.494;2023-04-16T00:12:42;100575.53;;;11.42;99.12
16355;BME280;8287;51.644;8.494;2023-04-16T00:15:12;100565.34;;;11.35;99.28
16355;BME280;8287;51.644;8.494;2023-04-16T00:17:39;100570.38;;;11.37;99.23
16355;BME280;8287;51.644;8.494;2023-04-16T00:20:06;100579.41;;;11.36;99.24
16355;BME280;8287;51.644;8.494;2023-04-16T00:22:34;100575.84;;;11.40;99.14
16355;BME280;8287;51.644;8.494;2023-04-16T00:25:01;100581.81;;;11.46;98.75
16355;BME280;8287;51.644;8.494;2023-04-16T00:27:27;100564.16;;;11.41;99.49
16355;BME280;8287;51.644;8.494;2023-04-16T00:29:54;100576.19;;;11.47;98.63
16355;BME280;8287;51.644;8.494;2023-04-16T00:32:21;100583.84;;;11.49;98.71
16355;BME280;8287;51.644;8.494;2023-04-16T00:34:48;100577.47;;;11.50;98.50
16355;BME280;8287;51.644;8.494;2023-04-16T00:37:15;100578.97;;;11.42;99.15
16355;BME280;8287;51.644;8.494;2023-04-16T00:39:41;100574.94;;;11.45;98.75
16355;BME280;8287;51.644;8.494;2023-04-16T00:42:08;100570.88;;;11.47;98.83
16355;BME280;8287;51.644;8.494;2023-04-16T00:44:34;100576.63;;;11.41;98.81
16355;BME280;8287;51.644;8.494;2023-04-16T00:47:01;100579.81;;;11.51;98.85
16355;BME280;8287;51.644;8.494;2023-04-16T00:49:29;100582.28;;;11.48;98.85
16355;BME280;8287;51.644;8.494;2023-04-16T00:51:56;100572.47;;;11.48;98.21
16355;BME280;8287;51.644;8.494;2023-04-16T00:54:23;100580.09;;;11.50;98.42
16355;BME280;8287;51.644;8.494;2023-04-16T00:56:50;100580.44;;;11.48;98.20
16355;BME280;8287;51.644;8.494;2023-04-16T00:59:17;100577.78;;;11.48;98.59
16355;BME280;8287;51.644;8.494;2023-04-16T01:01:43;100580.59;;;11.52;98.37
16355;BME280;8287;51.644;8.494;2023-04-16T01:04:10;100588.41;;;11.48;97.96
16355;BME280;8287;51.644;8.494;2023-04-16T01:06:38;100588.97;;;11.45;98.18
16355;BME280;8287;51.644;8.494;2023-04-16T01:09:05;100589.97;;;11.49;98.35
16355;BME280;8287;51.644;8.494;2023-04-16T01:11:31;100591.53;;;11.50;97.76
16355;BME280;8287;51.644;8.494;2023-04-16T01:13:58;100588.53;;;11.52;98.22
16355;BME280;8287;51.644;8.494;2023-04-16T01:16:24;100590.72;;;11.50;97.39
16355;BME280;8287;51.644;8.494;2023-04-16T01:18:51;100595.44;;;11.53;98.27
16355;BME280;8287;51.644;8.494;2023-04-16T01:21:19;100597.31;;;11.52;97.42
16355;BME280;8287;51.644;8.494;2023-04-16T01:23:46;100594.94;;;11.51;97.43
16355;BME280;8287;51.644;8.494;2023-04-16T01:26:12;100586.41;;;11.54;97.63
16355;BME280;8287;51.644;8.494;2023-04-16T01:28:39;100594.34;;;11.54;97.78
16355;BME280;8287;51.644;8.494;2023-04-16T01:31:06;100594.09;;;11.42;98.16
16355;BME280;8287;51.644;8.494;2023-04-16T01:33:33;100602.88;;;11.42;97.46
16355;BME280;8287;51.644;8.494;2023-04-16T01:36:00;100599.31;;;11.47;97.27
16355;BME280;8287;51.644;8.494;2023-04-16T01:38:28;100605.88;;;11.49;97.55
16355;BME280;8287;51.644;8.494;2023-04-16T01:40:55;100609.31;;;11.50;97.03
16355;BME280;8287;51.644;8.494;2023-04-16T01:43:23;100608.72;;;11.53;97.36
16355;BME280;8287;51.644;8.494;2023-04-16T01:45:51;100609.78;;;11.52;96.95
16355;BME280;8287;51.644;8.494;2023-04-16T01:48:17;100609.47;;;11.53;97.29
16355;BME280;8287;51.644;8.494;2023-04-16T01:50:44;100609.13;;;11.46;97.71
16355;BME280;8287;51.644;8.494;2023-04-16T01:53:11;100612.28;;;11.48;97.62
16355;BME280;8287;51.644;8.494;2023-04-16T01:55:39;100609.44;;;11.45;97.25
16355;BME280;8287;51.644;8.494;2023-04-16T01:58:05;100617.88;;;11.47;97.70
16355;BME280;8287;51.644;8.494;2023-04-16T02:00:35;100627.88;;;11.50;97.05
16355;BME280;8287;51.644;8.494;2023-04-16T02:03:01;100617.06;;;11.46;97.59
16355;BME280;8287;51.644;8.494;2023-04-16T02:05:28;100616.16;;;11.51;97.18
16355;BME280;8287;51.644;8.494;2023-04-16T02:07:55;100613.03;;;11.49;97.07
16355;BME280;8287;51.644;8.494;2023-04-16T02:10:21;100611.97;;;11.50;97.32
16355;BME280;8287;51.644;8.494;2023-04-16T02:12:49;100625.22;;;11.50;97.71
16355;BME280;8287;51.644;8.494;2023-04-16T02:15:16;100624.31;;;11.54;97.09
16355;BME280;8287;51.644;8.494;2023-04-16T02:17:42;100618.81;;;11.51;97.02
16355;BME280;8287;51.644;8.494;2023-04-16T02:20:11;100624.13;;;11.51;96.77
16355;BME280;8287;51.644;8.494;2023-04-16T02:22:37;100623.53;;;11.54;96.96
16355;BME280;8287;51.644;8.494;2023-04-16T02:25:04;100629.94;;;11.53;97.01
16355;BME280;8287;51.644;8.494;2023-04-16T02:27:31;100626.31;;;11.49;97.09
16355;BME280;8287;51.644;8.494;2023-04-16T02:29:59;100626.31;;;11.49;97.27
16355;BME280;8287;51.644;8.494;2023-04-16T02:32:25;100620.53;;;11.47;96.80
16355;BME280;8287;51.644;8.494;2023-04-16T02:34:52;100620.81;;;11.45;97.13
16355;BME280;8287;51.644;8.494;2023-04-16T02:37:20;100614.13;;;11.48;96.32
16355;BME280;8287;51.644;8.494;2023-04-16T02:39:46;100625.38;;;11.45;96.91
16355;BME280;8287;51.644;8.494;2023-04-16T02:42:14;100626.59;;;11.47;97.42
16355;BME280;8287;51.644;8.494;2023-04-16T02:44:41;100631.63;;;11.49;96.92
16355;BME280;8287;51.644;8.494;2023-04-16T02:47:09;100624.84;;;11.43;97.16
16355;BME280;8287;51.644;8.494;2023-04-16T02:49:35;100625.94;;;11.42;96.64
16355;BME280;8287;51.644;8.494;2023-04-16T02:52:02;100626.13;;;11.45;97.03
16355;BME280;8287;51.644;8.494;2023-04-16T02:54:28;100626.94;;;11.46;97.26
16355;BME280;8287;51.644;8.494;2023-04-16T02:56:55;100627.41;;;11.48;96.99
16355;BME280;8287;51.644;8.494;2023-04-16T02:59:22;100624.13;;;11.51;96.91
16355;BME280;8287;51.644;8.494;2023-04-16T03:01:48;100616.50;;;11.49;96.66
16355;BME280;8287;51.644;8.494;2023-04-16T03:04:16;100619.81;;;11.55;96.42
16355;BME280;8287;51.644;8.494;2023-04-16T03:06:43;100631.81;;;11.52;96.62
16355;BME280;8287;51.644;8.494;2023-04-16T03:09:09;100625.53;;;11.48;96.94
16355;BME280;8287;51.644;8.494;2023-04-16T03:11:36;100633.31;;;11.45;97.04
16355;BME280;8287;51.644;8.494;2023-04-16T03:14:02;100632.72;;;11.48;96.97
16355;BME280;8287;51.644;8.494;2023-04-16T03:16:29;100630.06;;;11.48;96.83
16355;BME280;8287;51.644;8.494;2023-04-16T03:18:56;100636.94;;;11.49;96.61
16355;BME280;8287;51.644;8.494;2023-04-16T03:21:24;100634.16;;;11.54;96.21
16355;BME280;8287;51.644;8.494;2023-04-16T03:23:51;100632.72;;;11.48;96.32
16355;BME280;8287;51.644;8.494;2023-04-16T03:26:20;100633.38;;;11.53;96.16
16355;BME280;8287;51.644;8.494;2023-04-16T03:28:47;100642.13;;;11.54;96.58
16355;BME280;8287;51.644;8.494;2023-04-16T03:31:13;100637.41;;;11.51;96.18
16355;BME280;8287;51.644;8.494;2023-04-16T03:33:40;100645.88;;;11.53;96.50
16355;BME280;8287;51.644;8.494;2023-04-16T03:36:07;100643.97;;;11.53;96.07
16355;BME280;8287;51.644;8.494;2023-04-16T03:38:35;100653.81;;;11.53;96.36
16355;BME280;8287;51.644;8.494;2023-04-16T03:41:02;100643.22;;;11.53;96.32
16355;BME280;8287;51.644;8.494;2023-04-16T03:43:29;100645.97;;;11.48;96.76
16355;BME280;8287;51.644;8.494;2023-04-16T03:45:55;100648.91;;;11.46;96.53
16355;BME280;8287;51.644;8.494;2023-04-16T03:48:22;100647.34;;;11.45;96.85
16355;BME280;8287;51.644;8.494;2023-04-16T03:50:48;100652.38;;;11.47;96.47
16355;BME280;8287;51.644;8.494;2023-04-16T03:53:15;100649.16;;;11.36;96.80
16355;BME280;8287;51.644;8.494;2023-04-16T03:55:43;100645.75;;;11.36;97.19
16355;BME280;8287;51.644;8.494;2023-04-16T03:58:09;100643.84;;;11.36;97.16
16355;BME280;8287;51.644;8.494;2023-04-16T04:00:36;100639.34;;;11.37;96.60
16355;BME280;8287;51.644;8.494;2023-04-16T04:03:03;100644.84;;;11.40;96.81
16355;BME280;8287;51.644;8.494;2023-04-16T04:05:29;100649.63;;;11.38;97.08
16355;BME280;8287;51.644;8.494;2023-04-16T04:07:56;100642.47;;;11.39;96.59
16355;BME280;8287;51.644;8.494;2023-04-16T04:10:22;100651.19;;;11.39;96.57
16355;BME280;8287;51.644;8.494;2023-04-16T04:12:50;100660.56;;;11.37;96.51
16355;BME280;8287;51.644;8.494;2023-04-16T04:15:17;100649.63;;;11.38;96.89
16355;BME280;8287;51.644;8.494;2023-04-16T04:17:43;100653.84;;;11.39;96.60
16355;BME280;8287;51.644;8.494;2023-04-16T04:20:11;100658.88;;;11.41;96.30
16355;BME280;8287;51.644;8.494;2023-04-16T04:22:37;100660.63;;;11.45;96.28
16355;BME280;8287;51.644;8.494;2023-04-16T04:25:05;100662.50;;;11.45;96.37
16355;BME280;8287;51.644;8.494;2023-04-16T04:27:32;100658.88;;;11.41;96.72
16355;BME280;8287;51.644;8.494;2023-04-16T04:30:00;100669.84;;;11.48;96.36
16355;BME280;8287;51.644;8.494;2023-04-16T04:32:27;100672.63;;;11.43;96.14
16355;BME280;8287;51.644;8.494;2023-04-16T04:34:54;100671.84;;;11.42;95.77
16355;BME280;8287;51.644;8.494;2023-04-16T04:37:20;100679.63;;;11.39;95.91
16355;BME280;8287;51.644;8.494;2023-04-16T04:39:47;100678.63;;;11.35;96.35
16355;BME280;8287;51.644;8.494;2023-04-16T04:42:16;100679.63;;;11.39;96.25
16355;BME280;8287;51.644;8.494;2023-04-16T04:44:43;100677.44;;;11.41;95.45
16355;BME280;8287;51.644;8.494;2023-04-16T04:47:11;100691.00;;;11.39;95.30
16355;BME280;8287;51.644;8.494;2023-04-16T04:49:38;100684.75;;;11.35;95.62
16355;BME280;8287;51.644;8.494;2023-04-16T04:52:05;100693.66;;;11.39;95.15
16355;BME280;8287;51.644;8.494;2023-04-16T04:54:31;100698.06;;;11.44;95.38
16355;BME280;8287;51.644;8.494;2023-04-16T04:56:58;100694.88;;;11.33;95.70
16355;BME280;8287;51.644;8.494;2023-04-16T04:59:25;100687.69;;;11.34;95.48
16355;BME280;8287;51.644;8.494;2023-04-16T05:01:52;100703.50;;;11.39;95.50
16355;BME280;8287;51.644;8.494;2023-04-16T05:04:20;100702.50;;;11.35;95.07
16355;BME280;8287;51.644;8.494;2023-04-16T05:06:46;100703.31;;;11.35;95.80
16355;BME280;8287;51.644;8.494;2023-04-16T05:09:13;100708.31;;;11.37;95.62
16355;BME280;8287;51.644;8.494;2023-04-16T05:11:40;100715.97;;;11.38;95.33
16355;BME280;8287;51.644;8.494;2023-04-16T05:14:07;100717.66;;;11.34;94.56
16355;BME280;8287;51.644;8.494;2023-04-16T05:16:35;100716.69;;;11.30;95.13
16355;BME280;8287;51.644;8.494;2023-04-16T05:19:02;100723.25;;;11.33;95.14
16355;BME280;8287;51.644;8.494;2023-04-16T05:21:30;100721.41;;;11.33;95.63
16355;BME280;8287;51.644;8.494;2023-04-16T05:23:57;100725.44;;;11.31;95.23
16355;BME280;8287;51.644;8.494;2023-04-16T05:26:24;100731.34;;;11.28;94.88
16355;BME280;8287;51.644;8.494;2023-04-16T05:28:50;100736.66;;;11.28;95.01
16355;BME280;8287;51.644;8.494;2023-04-16T05:31:17;100743.34;;;11.12;96.11
16355;BME280;8287;51.644;8.494;2023-04-16T05:33:43;100740.88;;;11.02;95.72
16355;BME280;8287;51.644;8.494;2023-04-16T05:36:10;100749.94;;;11.01;96.71
16355;BME280;8287;51.644;8.494;2023-04-16T05:38:38;100743.16;;;10.68;97.93
16355;BME280;8287;51.644;8.494;2023-04-16T05:41:04;100748.84;;;10.48;99.07
16355;BME280;8287;51.644;8.494;2023-04-16T05:43:31;100748.84;;;10.75;98.44
16355;BME280;8287;51.644;8.494;2023-04-16T05:45:57;100758.38;;;10.76;97.77
16355;BME280;8287;51.644;8.494;2023-04-16T05:48:24;100762.75;;;10.40;99.26
16355;BME280;8287;51.644;8.494;2023-04-16T05:50:50;100763.78;;;10.71;99.56
16355;BME280;8287;51.644;8.494;2023-04-16T05:53:18;100764.06;;;10.69;97.89
16355;BME280;8287;51.644;8.494;2023-04-16T05:55:45;100768.50;;;10.74;98.10
16355;BME280;8287;51.644;8.494;2023-04-16T05:58:12;100767.34;;;10.21;99.82
16355;BME280;8287;51.644;8.494;2023-04-16T06:00:39;100775.94;;;10.45;100.00
16355;BME280;8287;51.644;8.494;2023-04-16T06:03:05;100764.56;;;10.85;98.91
16355;BME280;8287;51.644;8.494;2023-04-16T06:05:32;100772.22;;;11.00;97.56
16355;BME280;8287;51.644;8.494;2023-04-16T06:07:58;100777.72;;;10.49;98.23
16355;BME280;8287;51.644;8.494;2023-04-16T06:10:25;100779.09;;;10.74;98.41
16355;BME280;8287;51.644;8.494;2023-04-16T06:12:53;100772.91;;;10.92;97.49
16355;BME280;8287;51.644;8.494;2023-04-16T06:15:20;100780.78;;;11.10;96.40
16355;BME280;8287;51.644;8.494;2023-04-16T06:17:47;100776.34;;;11.06;95.91
16355;BME280;8287;51.644;8.494;2023-04-16T06:20:14;100776.34;;;11.06;95.98
16355;BME280;8287;51.644;8.494;2023-04-16T06:22:41;100779.78;;;11.20;95.00
16355;BME280;8287;51.644;8.494;2023-04-16T06:25:08;100785.66;;;11.17;94.58
16355;BME280;8287;51.644;8.494;2023-04-16T06:27:35;100787.63;;;11.11;94.18
16355;BME280;8287;51.644;8.494;2023-04-16T06:30:03;100790.50;;;11.15;93.93
16355;BME280;8287;51.644;8.494;2023-04-16T06:32:30;100794.63;;;10.94;94.49
16355;BME280;8287;51.644;8.494;2023-04-16T06:34:57;100799.34;;;11.10;94.80
16355;BME280;8287;51.644;8.494;2023-04-16T06:37:23;100790.41;;;11.20;93.49
16355;BME280;8287;51.644;8.494;2023-04-16T06:39:50;100801.28;;;11.18;93.07
16355;BME280;8287;51.644;8.494;2023-04-16T06:42:16;100812.09;;;11.22;92.91
16355;BME280;8287;51.644;8.494;2023-04-16T06:44:43;100809.06;;;11.15;93.30
16355;BME280;8287;51.644;8.494;2023-04-16T06:47:11;100811.81;;;11.23;92.80
16355;BME280;8287;51.644;8.494;2023-04-16T06:49:37;100808.66;;;11.21;92.81
16355;BME280;8287;51.644;8.494;2023-04-16T06:52:04;100815.25;;;11.24;92.85
16355;BME280;8287;51.644;8.494;2023-04-16T06:54:31;100810.53;;;11.21;92.93
16355;BME280;8287;51.644;8.494;2023-04-16T06:56:57;100812.38;;;11.20;92.32
16355;BME280;8287;51.644;8.494;2023-04-16T06:59:24;100820.63;;;11.19;93.06
16355;BME280;8287;51.644;8.494;2023-04-16T07:01:51;100817.69;;;11.20;92.90
16355;BME280;8287;51.644;8.494;2023-04-16T07:04:19;100813.19;;;11.07;92.32
16355;BME280;8287;51.644;8.494;2023-04-16T07:06:46;100810.63;;;11.16;92.95
16355;BME280;8287;51.644;8.494;2023-04-16T07:09:12;100818.28;;;11.04;93.44
16355;BME280;8287;51.644;8.494;2023-04-16T07:11:39;100817.41;;;11.08;93.18
16355;BME280;8287;51.644;8.494;2023-04-16T07:14:06;100826.94;;;11.09;92.77
16355;BME280;8287;51.644;8.494;2023-04-16T07:16:32;100829.59;;;11.09;92.83
16355;BME280;8287;51.644;8.494;2023-04-16T07:18:59;100828.56;;;10.78;92.80
16355;BME280;8287;51.644;8.494;2023-04-16T07:21:27;100828.56;;;10.78;94.92
16355;BME280;8287;51.644;8.494;2023-04-16T07:23:54;100826.94;;;10.82;94.38
16355;BME280;8287;51.644;8.494;2023-04-16T07:26:20;100838.13;;;10.47;97.14
16355;BME280;8287;51.644;8.494;2023-04-16T07:28:47;100839.38;;;10.82;96.18
16355;BME280;8287;51.644;8.494;2023-04-16T07:31:13;100837.50;;;10.69;96.82
16355;BME280;8287;51.644;8.494;2023-04-16T07:33:40;100836.06;;;10.90;95.24
16355;BME280;8287;51.644;8.494;2023-04-16T07:36:07;100843.31;;;10.71;95.90
16355;BME280;8287;51.644;8.494;2023-04-16T07:38:34;100848.81;;;10.42;96.30
16355;BME280;8287;51.644;8.494;2023-04-16T07:41:01;100845.56;;;10.13;98.84
16355;BME280;8287;51.644;8.494;2023-04-16T07:43:28;100852.88;;;10.53;98.82
16355;BME280;8287;51.644;8.494;2023-04-16T07:45:54;100849.00;;;10.64;98.55
16355;BME280;8287;51.644;8.494;2023-04-16T07:48:21;100851.75;;;10.86;97.10
16355;BME280;8287;51.644;8.494;2023-04-16T07:50:48;100854.13;;;11.15;95.18
16355;BME280;8287;51.644;8.494;2023-04-16T07:53:14;100849.53;;;11.07;94.64
16355;BME280;8287;51.644;8.494;2023-04-16T07:55:42;100860.50;;;10.87;94.66
16355;BME280;8287;51.644;8.494;2023-04-16T07:58:09;100861.19;;;10.79;96.86
16355;BME280;8287;51.644;8.494;2023-04-16T08:00:35;100869.63;;;10.81;96.41
16355;BME280;8287;51.644;8.494;2023-04-16T08:03:02;100876.97;;;10.84;97.30
16355;BME280;8287;51.644;8.494;2023-04-16T08:05:29;100870.25;;;11.05;94.92
16355;BME280;8287;51.644;8.494;2023-04-16T08:07:56;100879.41;;;10.67;95.40
16355;BME280;8287;51.644;8.494;2023-04-16T08:10:23;100878.25;;;10.86;95.80
16355;BME280;8287;51.644;8.494;2023-04-16T08:12:51;100878.47;;;10.90;95.12
16355;BME280;8287;51.644;8.494;2023-04-16T08:15:17;100886.91;;;10.92;95.98
16355;BME280;8287;51.644;8.494;2023-04-16T08:17:44;100879.78;;;11.06;95.47
16355;BME280;8287;51.644;8.494;2023-04-16T08:20:10;100885.56;;;11.08;94.84
16355;BME280;8287;51.644;8.494;2023-04-16T08:22:37;100889.09;;;11.17;94.68
16355;BME280;8287;51.644;8.494;2023-04-16T08:25:04;100898.81;;;11.08;95.83
16355;BME280;8287;51.644;8.494;2023-04-16T08:27:31;100895.28;;;11.26;93.01
16355;BME280;8287;51.644;8.494;2023-04-16T08:29:59;100905.88;;;10.99;93.78
16355;BME280;8287;51.644;8.494;2023-04-16T08:32:26;100897.44;;;10.97;95.11
16355;BME280;8287;51.644;8.494;2023-04-16T08:34:52;100901.94;;;10.96;95.08
16355;BME280;8287;51.644;8.494;2023-04-16T08:37:19;100911.09;;;11.04;93.40
16355;BME280;8287;51.644;8.494;2023-04-16T08:39:45;100902.75;;;10.97;94.52
16355;BME280;8287;51.644;8.494;2023-04-16T08:42:17;100907.88;;;11.07;95.21
16355;BME280;8287;51.644;8.494;2023-04-16T08:44:47;100921.72;;;11.17;94.52
16355;BME280;8287;51.644;8.494;2023-04-16T08:47:16;100917.16;;;10.91;93.83
16355;BME280;8287;51.644;8.494;2023-04-16T08:49:43;100914.84;;;11.03;93.51
16355;BME280;8287;51.644;8.494;2023-04-16T08:52:14;100914.25;;;11.06;93.27
16355;BME280;8287;51.644;8.494;2023-04-16T08:54:47;100914.66;;;11.13;92.90
16355;BME280;8287;51.644;8.494;2023-04-16T08:57:18;100913.88;;;11.26;94.03
16355;BME280;8287;51.644;8.494;2023-04-16T08:59:45;100913.50;;;11.46;93.56
16355;BME280;8287;51.644;8.494;2023-04-16T09:02:12;100928.31;;;11.20;92.36
16355;BME280;8287;51.644;8.494;2023-04-16T09:04:40;100925.28;;;11.53;94.40
16355;BME280;8287;51.644;8.494;2023-04-16T09:07:08;100922.34;;;11.82;93.66
16355;BME280;8287;51.644;8.494;2023-04-16T09:09:36;100926.50;;;12.10;92.87
16355;BME280;8287;51.644;8.494;2023-04-16T09:12:04;100928.31;;;12.01;91.62
16355;BME280;8287;51.644;8.494;2023-04-16T09:14:30;100929.38;;;12.00;90.28
16355;BME280;8287;51.644;8.494;2023-04-16T09:16:57;100928.72;;;11.94;90.78
16355;BME280;8287;51.644;8.494;2023-04-16T09:19:25;100934.53;;;11.69;89.62
16355;BME280;8287;51.644;8.494;2023-04-16T09:21:53;100932.97;;;11.68;90.94
16355;BME280;8287;51.644;8.494;2023-04-16T09:24:20;100934.50;;;11.96;90.19
16355;BME280;8287;51.644;8.494;2023-04-16T09:26:47;100935.31;;;11.97;89.97
16355;BME280;8287;51.644;8.494;2023-04-16T09:29:32;100934.09;;;12.16;89.28
16355;BME280;8287;51.644;8.494;2023-04-16T09:32:01;100934.53;;;11.83;88.86
16355;BME280;8287;51.644;8.494;2023-04-16T09:34:28;100940.78;;;12.14;89.28
16355;BME280;8287;51.644;8.494;2023-04-16T09:37:13;100939.16;;;12.62;87.57
16355;BME280;8287;51.644;8.494;2023-04-16T09:39:40;100943.25;;;12.68;87.14
16355;BME280;8287;51.644;8.494;2023-04-16T09:42:07;100936.94;;;12.86;86.25
16355;BME280;8287;51.644;8.494;2023-04-16T09:44:34;100945.16;;;12.76;85.33
16355;BME280;8287;51.644;8.494;2023-04-16T09:47:05;100940.22;;;12.39;86.52
16355;BME280;8287;51.644;8.494;2023-04-16T09:49:33;100945.41;;;12.44;86.27
16355;BME280;8287;51.644;8.494;2023-04-16T09:52:01;100945.09;;;12.89;84.83
16355;BME280;8287;51.644;8.494;2023-04-16T09:54:27;100944.31;;;12.67;85.99
16355;BME280;8287;51.644;8.494;2023-04-16T09:56:55;100941.50;;;12.85;85.33
16355;BME280;8287;51.644;8.494;2023-04-16T09:59:23;100938.53;;;12.87;85.13
16355;BME280;8287;51.644;8.494;2023-04-16T10:01:49;100945.59;;;13.13;83.76
16355;BME280;8287;51.644;8.494;2023-04-16T10:04:17;100952.56;;;12.79;83.48
16355;BME280;8287;51.644;8.494;2023-04-16T10:07:02;100951.03;;;12.42;84.91
16355;BME280;8287;51.644;8.494;2023-04-16T10:09:31;100948.56;;;12.46;86.10
16355;BME280;8287;51.644;8.494;2023-04-16T10:11:58;100949.88;;;12.57;85.67
16355;BME280;8287;51.644;8.494;2023-04-16T10:14:24;100956.97;;;12.61;85.00
16355;BME280;8287;51.644;8.494;2023-04-16T10:16:51;100956.41;;;12.51;85.30
16355;BME280;8287;51.644;8.494;2023-04-16T10:19:19;100958.56;;;12.13;86.64
16355;BME280;8287;51.644;8.494;2023-04-16T10:21:46;100964.13;;;11.90;87.83
16355;BME280;8287;51.644;8.494;2023-04-16T10:24:15;100958.91;;;11.85;89.26
16355;BME280;8287;51.644;8.494;2023-04-16T10:26:43;100959.13;;;11.75;89.06
16355;BME280;8287;51.644;8.494;2023-04-16T10:29:10;100963.97;;;12.22;88.33
16355;BME280;8287;51.644;8.494;2023-04-16T10:31:38;100955.91;;;12.13;86.95
16355;BME280;8287;51.644;8.494;2023-04-16T10:34:06;100960.72;;;12.25;88.27
16355;BME280;8287;51.644;8.494;2023-04-16T10:36:35;100962.19;;;12.53;87.17
16355;BME280;8287;51.644;8.494;2023-04-16T10:39:02;100964.38;;;12.51;86.41
16355;BME280;8287;51.644;8.494;2023-04-16T10:41:32;100963.06;;;12.62;86.41
16355;BME280;8287;51.644;8.494;2023-04-16T10:44:07;100964.19;;;12.47;85.36
16355;BME280;8287;51.644;8.494;2023-04-16T10:46:36;100961.63;;;12.56;86.00
16355;BME280;8287;51.644;8.494;2023-04-16T10:49:12;100964.63;;;12.41;86.13
16355;BME280;8287;51.644;8.494;2023-04-16T10:51:39;100961.59;;;12.78;86.39
16355;BME280;8287;51.644;8.494;2023-04-16T10:54:19;100969.81;;;13.12;85.06
16355;BME280;8287;51.644;8.494;2023-04-16T10:56:49;100966.66;;;13.01;85.28
16355;BME280;8287;51.644;8.494;2023-04-16T10:59:17;100968.78;;;13.21;85.10
16355;BME280;8287;51.644;8.494;2023-04-16T11:01:45;100966.84;;;13.35;84.02
16355;BME280;8287;51.644;8.494;2023-04-16T11:04:26;100971.84;;;13.36;83.01
16355;BME280;8287;51.644;8.494;2023-04-16T11:07:00;100968.03;;;13.21;83.36
16355;BME280;8287;51.644;8.494;2023-04-16T11:09:49;100971.41;;;13.13;83.93
16355;BME280;8287;51.644;8.494;2023-04-16T11:12:18;100972.72;;;13.23;83.34
16355;BME280;8287;51.644;8.494;2023-04-16T11:14:47;100962.56;;;13.25;83.32
16355;BME280;8287;51.644;8.494;2023-04-16T11:17:14;100979.63;;;13.24;82.94
16355;BME280;8287;51.644;8.494;2023-04-16T11:19:41;100970.78;;;12.94;83.76
16355;BME280;8287;51.644;8.494;2023-04-16T11:22:11;100967.78;;;13.09;84.13
16355;BME280;8287;51.644;8.494;2023-04-16T11:24:38;100965.31;;;13.12;84.32
16355;BME280;8287;51.644;8.494;2023-04-16T11:27:05;100970.81;;;13.24;84.14
16355;BME280;8287;51.644;8.494;2023-04-16T11:29:33;100970.81;;;13.24;85.42
16355;BME280;8287;51.644;8.494;2023-04-16T11:32:00;100972.09;;;13.26;85.18
16355;BME280;8287;51.644;8.494;2023-04-16T11:34:27;100974.50;;;13.36;84.19
16355;BME280;8287;51.644;8.494;2023-04-16T11:36:53;100973.44;;;13.37;84.17
16355;BME280;8287;51.644;8.494;2023-04-16T11:39:20;100975.75;;;13.39;83.17
16355;BME280;8287;51.644;8.494;2023-04-16T11:41:48;100972.59;;;13.28;84.58
16355;BME280;8287;51.644;8.494;2023-04-16T11:44:19;100974.75;;;13.26;84.24
16355;BME280;8287;51.644;8.494;2023-04-16T11:46:48;100983.72;;;13.00;84.77
16355;BME280;8287;51.644;8.494;2023-04-16T11:49:15;100973.28;;;12.68;86.87
16355;BME280;8287;51.644;8.494;2023-04-16T11:51:43;100983.25;;;12.85;85.78
16355;BME280;8287;51.644;8.494;2023-04-16T11:54:17;100979.41;;;13.13;84.97
16355;BME280;8287;51.644;8.494;2023-04-16T11:56:45;100980.09;;;12.83;84.59
16355;BME280;8287;51.644;8.494;2023-04-16T11:59:13;100982.28;;;12.81;85.55
16355;BME280;8287;51.644;8.494;2023-04-16T12:01:44;100980.41;;;12.59;84.66
16355;BME280;8287;51.644;8.494;2023-04-16T12:04:13;100983.78;;;12.51;86.75
16355;BME280;8287;51.644;8.494;2023-04-16T12:06:40;100986.13;;;12.53;87.22
16355;BME280;8287;51.644;8.494;2023-04-16T12:09:22;100984.59;;;12.74;85.65
16355;BME280;8287;51.644;8.494;2023-04-16T12:11:49;100983.16;;;12.54;86.90
16355;BME280;8287;51.644;8.494;2023-04-16T12:14:16;100989.81;;;12.65;87.25
16355;BME280;8287;51.644;8.494;2023-04-16T12:16:42;100988.25;;;12.64;87.73
16355;BME280;8287;51.644;8.494;2023-04-16T12:19:10;100989.41;;;12.72;87.12
16355;BME280;8287;51.644;8.494;2023-04-16T12:21:39;100986.84;;;13.02;86.45
16355;BME280;8287;51.644;8.494;2023-04-16T12:24:08;100988.66;;;13.45;84.13
16355;BME280;8287;51.644;8.494;2023-04-16T12:26:41;100990.88;;;13.22;82.86
16355;BME280;8287;51.644;8.494;2023-04-16T12:29:16;100992.19;;;12.67;84.18
16355;BME280;8287;51.644;8.494;2023-04-16T12:31:42;100996.75;;;12.53;84.85
16355;BME280;8287;51.644;8.494;2023-04-16T12:34:09;100998.78;;;12.34;86.11
16355;BME280;8287;51.644;8.494;2023-04-16T12:36:36;101000.44;;;12.43;87.50
16355;BME280;8287;51.644;8.494;2023-04-16T12:39:04;100998.03;;;12.55;85.58
16355;BME280;8287;51.644;8.494;2023-04-16T12:41:31;101003.53;;;12.59;85.66
16355;BME280;8287;51.644;8.494;2023-04-16T12:44:05;101001.00;;;12.76;85.32
16355;BME280;8287;51.644;8.494;2023-04-16T12:46:34;101000.53;;;12.74;84.55
16355;BME280;8287;51.644;8.494;2023-04-16T12:49:01;101011.13;;;12.52;84.09
16355;BME280;8287;51.644;8.494;2023-04-16T12:51:28;101001.53;;;12.64;85.04
16355;BME280;8287;51.644;8.494;2023-04-16T12:53:54;101004.09;;;12.69;84.98
16355;BME280;8287;51.644;8.494;2023-04-16T12:56:22;101011.09;;;13.01;83.94
16355;BME280;8287;51.644;8.494;2023-04-16T12:58:49;101012.81;;;12.83;83.17
16355;BME280;8287;51.644;8.494;2023-04-16T13:01:16;101016.88;;;12.81;83.41